Time;durP1;ratioP1;P1;durP2;ratioP2;P2;SDS_P1;SDS_P2;PMS_P1;PMS_P2;Temp;Humidity;BMP_temperature;BMP_pressure;BME280_temperature;BME280_humidity;BME280_pressure;Samples;Min_cycle;Max_cycle;Signal;HPM_P1;HPM_P2
2022/10/22 00:00:10;;;;;;;14.82;7.85;;;13.60;99.90;;;;;;5050390;28;20025;-68
2022/10/22 00:02:36;;;;;;;16.65;7.80;;;13.60;99.90;;;;;;5049862;28;20127;-69
2022/10/22 00:05:03;;;;;;;16.38;7.80;;;13.50;99.90;;;;;;5049086;28;20029;-67
2022/10/22 00:07:29;;;;;;;15.02;7.50;;;13.50;99.90;;;;;;5051257;28;20482;-69
2022/10/22 00:09:54;;;;;;;17.27;7.80;;;13.50;99.90;;;;;;5048128;28;20111;-68
2022/10/22 00:12:21;;;;;;;15.32;7.72;;;13.50;99.90;;;;;;5051020;28;20049;-69
2022/10/22 00:14:47;;;;;;;20.55;8.80;;;13.50;99.90;;;;;;5048761;28;20128;-67
2022/10/22 00:17:13;;;;;;;18.10;8.43;;;13.50;99.90;;;;;;5051238;28;20036;-69
2022/10/22 00:19:39;;;;;;;13.52;7.53;;;13.40;99.90;;;;;;5049463;28;20529;-68
2022/10/22 00:22:05;;;;;;;17.77;8.38;;;13.40;99.90;;;;;;5051925;28;20113;-69
2022/10/22 00:24:33;;;;;;;15.48;8.23;;;13.40;99.90;;;;;;5049074;28;20028;-67
2022/10/22 00:26:58;;;;;;;18.88;8.32;;;13.40;99.90;;;;;;5047797;28;20025;-69
2022/10/22 00:29:24;;;;;;;15.57;8.20;;;13.30;99.90;;;;;;5051768;28;20446;-66
2022/10/22 00:31:50;;;;;;;22.17;8.88;;;13.30;99.90;;;;;;5048095;28;20408;-67
2022/10/22 00:34:20;;;;;;;14.63;7.63;;;13.30;99.90;;;;;;5049925;28;20033;-68
2022/10/22 00:36:46;;;;;;;17.48;8.63;;;13.30;99.90;;;;;;5050155;28;20032;-67
2022/10/22 00:39:15;;;;;;;15.13;8.35;;;13.30;99.90;;;;;;5050248;28;20060;-69
2022/10/22 00:41:42;;;;;;;14.88;8.73;;;13.30;99.90;;;;;;5049894;28;20044;-69
2022/10/22 00:44:46;;;;;;;20.02;8.40;;;13.30;99.90;;;;;;5050135;28;20160;-67
2022/10/22 00:47:13;;;;;;;19.08;8.45;;;13.30;99.90;;;;;;5039849;28;20029;-70
2022/10/22 00:49:39;;;;;;;13.63;7.68;;;13.30;99.90;;;;;;5048618;28;20091;-68
2022/10/22 00:52:05;;;;;;;20.02;9.13;;;13.30;99.90;;;;;;5050412;28;20100;-69
2022/10/22 00:54:32;;;;;;;18.70;8.57;;;13.30;99.90;;;;;;5049980;28;20044;-68
2022/10/22 00:56:57;;;;;;;16.70;7.72;;;13.30;99.90;;;;;;5050015;28;20040;-68
2022/10/22 00:59:23;;;;;;;19.20;7.97;;;13.30;99.90;;;;;;5049161;28;20037;-69
2022/10/22 01:01:49;;;;;;;15.90;7.50;;;13.20;99.90;;;;;;5050101;28;20040;-68
2022/10/22 01:04:15;;;;;;;16.08;7.57;;;13.20;99.90;;;;;;5048630;28;20036;-69
2022/10/22 01:06:41;;;;;;;13.98;6.53;;;13.20;99.90;;;;;;5047867;28;20071;-68
2022/10/22 01:09:14;;;;;;;11.93;5.72;;;13.20;99.90;;;;;;5048350;28;20070;-67
2022/10/22 01:12:02;;;;;;;11.23;5.63;;;13.20;99.90;;;;;;5047403;28;20781;-65
2022/10/22 01:14:33;;;;;;;10.82;5.47;;;13.20;99.90;;;;;;5049646;28;20094;-67
2022/10/22 01:17:08;;;;;;;11.70;5.68;;;13.10;99.90;;;;;;5033911;28;20071;-68
2022/10/22 01:20:01;;;;;;;11.98;5.35;;;13.10;99.90;;;;;;5040556;28;20044;-69
2022/10/22 01:22:53;;;;;;;16.27;5.13;;;13.10;99.90;;;;;;5045331;28;20033;-69
2022/10/22 01:25:36;;;;;;;7.15;3.67;;;13.00;99.90;;;;;;5050044;28;20041;-69
2022/10/22 01:28:25;;;;;;;10.88;4.68;;;12.90;99.90;;;;;;5048113;28;20163;-69
2022/10/22 01:30:55;;;;;;;12.30;5.78;;;12.90;99.90;;;;;;5048062;28;20766;-71
2022/10/22 01:33:24;;;;;;;7.88;3.92;;;13.00;99.90;;;;;;5048452;28;20056;-69
2022/10/22 01:35:51;;;;;;;9.68;3.80;;;12.90;99.90;;;;;;5047497;28;20146;-67
2022/10/22 01:38:21;;;;;;;9.35;3.80;;;12.80;99.90;;;;;;5048188;28;20033;-70
2022/10/22 01:40:48;;;;;;;7.65;4.00;;;12.90;99.90;;;;;;5047893;28;20032;-69
2022/10/22 01:43:15;;;;;;;10.15;3.38;;;12.90;99.90;;;;;;5048921;28;20049;-69
2022/10/22 01:45:43;;;;;;;7.55;3.13;;;12.80;99.90;;;;;;5047590;28;20029;-71
2022/10/22 01:48:33;;;;;;;8.50;2.92;;;12.80;99.90;;;;;;5047821;28;20048;-69
2022/10/22 01:51:14;;;;;;;6.93;2.97;;;12.80;99.90;;;;;;5046562;28;20687;-68
2022/10/22 01:54:00;;;;;;;7.32;4.00;;;12.70;99.90;;;;;;5049412;28;20037;-72
2022/10/22 01:56:50;;;;;;;4.95;2.15;;;12.70;99.90;;;;;;5048940;28;20033;-69
2022/10/22 01:59:53;;;;;;;3.92;2.17;;;12.70;99.90;;;;;;5048784;28;20533;-69
2022/10/22 02:02:28;;;;;;;5.93;2.30;;;12.70;99.90;;;;;;5043640;28;20071;-69
2022/10/22 02:05:08;;;;;;;3.42;1.98;;;12.70;99.90;;;;;;5047280;28;20029;-68
2022/10/22 02:07:47;;;;;;;7.22;1.40;;;12.70;99.90;;;;;;5046732;28;20021;-70
2022/10/22 02:10:14;;;;;;;4.18;1.60;;;12.60;99.90;;;;;;5047984;28;20037;-69
2022/10/22 02:12:42;;;;;;;4.88;1.50;;;12.60;99.90;;;;;;5047205;28;20076;-70
2022/10/22 02:15:10;;;;;;;5.72;1.40;;;12.60;99.90;;;;;;5045656;28;20075;-69
2022/10/22 02:17:38;;;;;;;6.65;0.95;;;12.60;99.90;;;;;;5046982;28;20068;-70
2022/10/22 02:20:15;;;;;;;3.75;0.82;;;12.60;99.90;;;;;;5040130;28;20033;-68
2022/10/22 02:22:41;;;;;;;4.47;0.88;;;12.60;99.90;;;;;;5032886;28;20116;-71
2022/10/22 02:25:07;;;;;;;3.60;0.73;;;12.50;99.90;;;;;;5047859;28;20108;-70
2022/10/22 02:27:46;;;;;;;2.10;0.90;;;12.50;99.90;;;;;;5045845;28;20218;-69
2022/10/22 02:30:16;;;;;;;1.35;0.80;;;12.50;99.90;;;;;;5048260;28;20040;-68
2022/10/22 02:33:07;;;;;;;1.95;0.57;;;12.50;99.90;;;;;;5047171;28;20123;-71
2022/10/22 02:35:34;;;;;;;3.05;0.95;;;12.40;99.90;;;;;;5046802;28;20047;-69
2022/10/22 02:38:01;;;;;;;2.83;1.08;;;12.50;99.90;;;;;;5046502;28;20033;-66
2022/10/22 02:40:29;;;;;;;2.53;0.98;;;12.50;99.90;;;;;;5049298;28;20486;-69
2022/10/22 02:42:55;;;;;;;5.40;0.90;;;12.50;99.90;;;;;;5044826;28;20442;-68
2022/10/22 02:45:20;;;;;;;2.88;0.90;;;12.50;99.90;;;;;;5047124;28;20124;-66
2022/10/22 02:47:46;;;;;;;2.72;0.95;;;12.50;99.90;;;;;;5046792;28;20037;-68
2022/10/22 02:50:12;;;;;;;4.70;0.98;;;12.40;99.90;;;;;;5047517;28;20179;-69
2022/10/22 02:52:38;;;;;;;1.88;0.70;;;12.40;99.90;;;;;;5042710;28;20037;-66
2022/10/22 02:55:05;;;;;;;5.30;0.85;;;12.40;99.90;;;;;;5028123;28;20094;-68
2022/10/22 02:57:31;;;;;;;1.33;0.75;;;12.40;99.90;;;;;;5036832;28;20445;-67
2022/10/22 02:59:56;;;;;;;2.53;0.90;;;12.40;99.90;;;;;;5046114;28;20029;-70
2022/10/22 03:02:22;;;;;;;2.08;1.00;;;12.50;99.90;;;;;;5045392;28;20387;-68
2022/10/22 03:04:48;;;;;;;2.83;0.93;;;12.40;99.90;;;;;;5047630;28;20060;-67
2022/10/22 03:07:13;;;;;;;3.42;1.00;;;12.40;99.90;;;;;;5047618;28;20033;-67
2022/10/22 03:09:39;;;;;;;1.98;0.80;;;12.40;99.90;;;;;;5030394;28;20417;-67
2022/10/22 03:12:05;;;;;;;3.75;0.90;;;12.30;99.90;;;;;;5031126;28;20112;-66
2022/10/22 03:14:30;;;;;;;1.88;0.80;;;12.40;99.90;;;;;;5047598;28;20029;-69
2022/10/22 03:16:56;;;;;;;4.45;1.00;;;12.30;99.90;;;;;;5043851;28;20111;-67
2022/10/22 03:19:21;;;;;;;4.65;1.25;;;12.30;99.90;;;;;;5046457;28;20074;-67
2022/10/22 03:21:52;;;;;;;1.95;1.00;;;12.30;99.90;;;;;;5047057;28;20100;-68
2022/10/22 03:24:24;;;;;;;7.47;1.27;;;12.30;99.90;;;;;;5047865;28;20120;-67
2022/10/22 03:26:51;;;;;;;5.55;1.13;;;12.30;99.90;;;;;;5047764;28;20110;-67
2022/10/22 03:29:20;;;;;;;2.67;0.98;;;12.20;99.90;;;;;;5046434;28;20482;-68
2022/10/22 03:31:45;;;;;;;2.88;1.40;;;12.20;99.90;;;;;;5044224;28;20112;-71
2022/10/22 03:34:12;;;;;;;3.70;1.20;;;12.20;99.90;;;;;;5047295;28;20120;-68
2022/10/22 03:36:39;;;;;;;2.33;1.10;;;12.20;99.90;;;;;;5041670;28;20112;-67
2022/10/22 03:39:05;;;;;;;4.10;1.20;;;12.10;99.90;;;;;;5044185;28;20021;-67
2022/10/22 03:41:32;;;;;;;10.15;2.60;;;12.20;99.90;;;;;;5047549;28;20048;-68
2022/10/22 03:44:00;;;;;;;4.35;0.98;;;12.20;99.90;;;;;;5044706;28;20098;-69
2022/10/22 03:46:26;;;;;;;4.72;1.00;;;12.20;99.90;;;;;;5046770;28;20036;-67
2022/10/22 03:48:51;;;;;;;5.72;0.95;;;12.20;99.90;;;;;;5046384;28;20123;-68
2022/10/22 03:51:17;;;;;;;6.68;1.13;;;12.20;99.90;;;;;;5045195;28;20521;-69
2022/10/22 03:53:43;;;;;;;3.30;1.00;;;12.20;99.90;;;;;;5042250;28;20033;-68
2022/10/22 03:56:10;;;;;;;3.65;1.02;;;12.10;99.90;;;;;;5045859;28;20067;-69
2022/10/22 03:58:37;;;;;;;2.35;1.00;;;12.20;99.90;;;;;;5045858;28;20036;-68
2022/10/22 04:01:11;;;;;;;2.25;1.13;;;12.20;99.90;;;;;;5043422;28;20025;-67
2022/10/22 04:03:37;;;;;;;4.75;1.00;;;12.20;99.90;;;;;;5047690;28;20390;-67
2022/10/22 04:06:06;;;;;;;3.25;1.20;;;12.20;99.90;;;;;;5044387;28;20111;-67
2022/10/22 04:08:32;;;;;;;4.10;0.90;;;12.20;99.90;;;;;;5047376;28;20079;-68
2022/10/22 04:10:58;;;;;;;2.70;0.77;;;12.20;99.90;;;;;;5046446;28;20641;-67
2022/10/22 04:13:24;;;;;;;7.50;1.23;;;12.20;99.90;;;;;;5046940;28;20462;-68
2022/10/22 04:15:50;;;;;;;2.20;1.05;;;12.20;99.90;;;;;;5046254;28;20029;-70
2022/10/22 04:18:21;;;;;;;3.22;0.95;;;12.20;99.90;;;;;;5047028;28;20154;-68
2022/10/22 04:20:47;;;;;;;1.67;0.80;;;12.20;99.90;;;;;;5043313;28;20028;-70
2022/10/22 04:23:13;;;;;;;1.95;0.93;;;12.20;99.90;;;;;;5044014;28;20036;-69
2022/10/22 04:25:39;;;;;;;3.92;1.10;;;12.20;99.90;;;;;;5044691;28;20052;-67
2022/10/22 04:28:08;;;;;;;3.45;0.80;;;12.20;99.90;;;;;;5048420;28;20374;-68
2022/10/22 04:30:35;;;;;;;1.23;0.60;;;12.30;99.90;;;;;;5050841;28;20064;-67
2022/10/22 04:33:01;;;;;;;1.85;0.82;;;12.30;99.90;;;;;;5049218;28;20112;-69
2022/10/22 04:35:28;;;;;;;2.28;0.80;;;12.30;99.90;;;;;;5048740;28;20044;-68
2022/10/22 04:37:54;;;;;;;2.00;0.70;;;12.30;99.90;;;;;;5048249;28;20041;-69
2022/10/22 04:40:19;;;;;;;3.25;1.20;;;12.30;99.90;;;;;;5050338;28;20531;-67
2022/10/22 04:42:45;;;;;;;6.95;1.90;;;12.30;99.90;;;;;;5047108;28;20044;-69
2022/10/22 04:45:11;;;;;;;4.75;1.92;;;12.20;99.90;;;;;;5048660;28;20040;-70
2022/10/22 04:47:36;;;;;;;7.97;3.10;;;12.20;99.90;;;;;;5049066;28;20108;-69
2022/10/22 04:50:02;;;;;;;5.85;2.50;;;12.10;99.90;;;;;;5048963;28;20485;-68
2022/10/22 04:52:29;;;;;;;7.53;2.10;;;12.00;99.90;;;;;;5049657;28;20033;-68
2022/10/22 04:54:55;;;;;;;4.43;1.80;;;12.00;99.90;;;;;;5049126;28;20048;-67
2022/10/22 04:57:20;;;;;;;3.03;1.67;;;11.90;99.90;;;;;;5047585;28;20524;-68
2022/10/22 04:59:46;;;;;;;5.22;1.35;;;11.90;99.90;;;;;;5039627;28;20105;-69
2022/10/22 05:02:11;;;;;;;3.53;1.00;;;12.00;99.90;;;;;;5030433;28;20039;-69
2022/10/22 05:04:37;;;;;;;6.40;1.17;;;12.00;99.90;;;;;;5037839;28;20489;-67
2022/10/22 05:07:03;;;;;;;9.68;1.92;;;12.00;99.90;;;;;;5049085;28;20040;-68
2022/10/22 05:09:28;;;;;;;17.75;2.88;;;11.90;99.90;;;;;;5049991;28;20056;-68
2022/10/22 05:11:54;;;;;;;8.57;3.15;;;11.90;99.90;;;;;;5049905;28;20025;-69
2022/10/22 05:14:22;;;;;;;4.97;2.88;;;11.90;99.90;;;;;;5050479;28;20029;-66
2022/10/22 05:16:49;;;;;;;4.18;2.13;;;11.80;99.90;;;;;;5049981;28;20033;-69
2022/10/22 05:19:26;;;;;;;5.07;2.55;;;11.70;99.90;;;;;;5044607;28;20020;-69
2022/10/22 05:21:58;;;;;;;3.42;2.10;;;11.80;99.90;;;;;;5044180;28;20029;-70
2022/10/22 05:24:25;;;;;;;4.95;2.60;;;11.80;99.90;;;;;;5045015;28;20047;-67
2022/10/22 05:26:52;;;;;;;6.40;3.85;;;11.80;99.90;;;;;;5047317;28;20025;-69
2022/10/22 05:29:18;;;;;;;7.22;3.30;;;11.80;99.90;;;;;;5044518;28;20033;-69
2022/10/22 05:31:44;;;;;;;4.37;2.70;;;11.80;99.90;;;;;;5048397;28;20052;-66
2022/10/22 05:34:10;;;;;;;6.70;2.95;;;11.80;99.90;;;;;;5044039;28;20242;-68
2022/10/22 05:36:35;;;;;;;6.05;3.03;;;11.70;99.90;;;;;;5048473;28;20041;-68
2022/10/22 05:39:01;;;;;;;6.53;2.60;;;11.80;99.90;;;;;;5048137;28;20111;-69
2022/10/22 05:41:28;;;;;;;7.47;2.83;;;11.70;99.90;;;;;;5040927;28;20025;-67
2022/10/22 05:43:55;;;;;;;7.50;3.40;;;11.80;99.90;;;;;;5068381;28;20051;-71
2022/10/22 05:46:22;;;;;;;6.72;3.50;;;11.70;99.90;;;;;;5064923;28;20446;-69
2022/10/22 05:48:59;;;;;;;5.95;3.58;;;11.70;99.90;;;;;;5049635;28;20083;-69
2022/10/22 05:51:27;;;;;;;9.98;3.95;;;11.70;99.90;;;;;;5044768;28;20029;-68
2022/10/22 05:53:56;;;;;;;17.13;4.10;;;11.70;99.90;;;;;;5033572;28;20068;-71
2022/10/22 05:56:22;;;;;;;6.75;3.10;;;11.70;99.90;;;;;;5048876;28;20041;-69
2022/10/22 05:58:48;;;;;;;6.72;2.92;;;11.60;99.90;;;;;;5044842;28;20501;-66
2022/10/22 06:01:22;;;;;;;159.65;4.93;;;11.60;99.90;;;;;;5047965;28;20037;-68
2022/10/22 06:03:48;;;;;;;756.10;14.82;;;11.60;99.90;;;;;;5037882;28;20412;-68
2022/10/22 06:06:30;;;;;;;16.67;3.10;;;11.60;99.90;;;;;;5045504;28;20026;-68
2022/10/22 06:09:02;;;;;;;7.05;3.97;;;11.50;99.90;;;;;;5038365;28;20032;-71
2022/10/22 06:11:28;;;;;;;53.97;4.03;;;11.50;99.90;;;;;;5046063;28;20036;-68
2022/10/22 06:13:53;;;;;;;6.13;3.25;;;11.50;99.90;;;;;;5061785;28;20048;-70
2022/10/22 06:16:19;;;;;;;20.65;4.32;;;11.50;99.90;;;;;;5048115;28;20086;-67
2022/10/22 06:18:45;;;;;;;17.67;5.53;;;11.50;99.90;;;;;;5049942;28;20516;-67
2022/10/22 06:21:13;;;;;;;8.20;4.00;;;11.50;99.90;;;;;;5047326;28;20024;-68
2022/10/22 06:23:40;;;;;;;8.75;3.67;;;11.50;99.90;;;;;;5058154;28;20093;-68
2022/10/22 06:26:06;;;;;;;7.93;3.70;;;11.50;99.90;;;;;;5050859;28;20029;-69
2022/10/22 06:28:33;;;;;;;11.60;5.13;;;11.50;99.90;;;;;;5046565;28;20040;-68
2022/10/22 06:31:00;;;;;;;85.45;4.43;;;11.50;99.90;;;;;;5047654;28;20460;-70
2022/10/22 06:33:27;;;;;;;85.95;4.55;;;11.50;99.90;;;;;;5048616;28;20045;-68
2022/10/22 06:35:53;;;;;;;12.88;2.55;;;11.30;99.90;;;;;;5047329;28;20093;-68
2022/10/22 06:38:19;;;;;;;21.52;3.00;;;11.30;99.90;;;;;;5044395;28;20047;-68
2022/10/22 06:40:45;;;;;;;7.88;2.85;;;11.30;99.90;;;;;;5044156;28;20076;-68
2022/10/22 06:43:12;;;;;;;6.97;3.08;;;11.20;99.90;;;;;;5042537;28;20060;-69
2022/10/22 06:45:38;;;;;;;7.13;3.33;;;11.30;99.90;;;;;;5048284;28;20029;-68
2022/10/22 06:48:04;;;;;;;9.00;3.70;;;11.30;99.90;;;;;;5044173;28;20435;-70
2022/10/22 06:50:30;;;;;;;6.60;3.78;;;11.40;99.90;;;;;;5046289;28;20040;-67
2022/10/22 06:52:56;;;;;;;6.82;3.90;;;11.40;99.90;;;;;;5040641;28;20037;-70
2022/10/22 06:55:22;;;;;;;161.35;5.78;;;11.50;99.90;;;;;;5046947;28;20504;-68
2022/10/22 06:57:47;;;;;;;449.20;11.68;;;11.50;99.90;;;;;;5047132;28;20033;-69
2022/10/22 07:00:13;;;;;;;25.67;4.32;;;11.50;99.90;;;;;;5046869;28;20029;-69
2022/10/22 07:02:39;;;;;;;173.32;6.47;;;11.50;99.90;;;;;;5047339;28;20064;-67
2022/10/22 07:05:05;;;;;;;13.10;4.88;;;11.50;99.90;;;;;;5047006;28;20021;-67
2022/10/22 07:07:31;;;;;;;18.52;7.22;;;11.50;99.90;;;;;;5041914;28;20112;-68
2022/10/22 07:09:56;;;;;;;14.32;4.90;;;11.50;99.90;;;;;;5040985;28;20108;-71
2022/10/22 07:12:22;;;;;;;8.75;5.28;;;11.60;99.90;;;;;;5044336;28;20059;-67
2022/10/22 07:14:48;;;;;;;7.68;4.07;;;11.60;99.90;;;;;;5063638;28;20070;-71
2022/10/22 07:17:14;;;;;;;112.65;6.53;;;11.80;99.90;;;;;;5052347;28;20041;-72
2022/10/22 07:19:40;;;;;;;46.00;6.47;;;11.90;99.90;;;;;;5042194;28;20029;-67
2022/10/22 07:22:05;;;;;;;81.15;7.78;;;11.90;99.90;;;;;;5046279;28;20029;-69
2022/10/22 07:24:31;;;;;;;9.13;5.53;;;11.80;99.90;;;;;;5046142;28;20032;-68
2022/10/22 07:26:57;;;;;;;12.32;5.68;;;11.90;99.90;;;;;;5044175;28;20108;-70
2022/10/22 07:29:22;;;;;;;15.85;8.25;;;11.90;99.90;;;;;;5041476;28;20535;-69
2022/10/22 07:31:48;;;;;;;12.15;6.05;;;11.90;99.90;;;;;;5046913;28;20557;-71
2022/10/22 07:34:14;;;;;;;7.65;4.85;;;11.90;99.90;;;;;;5047879;28;20073;-72
2022/10/22 07:36:40;;;;;;;7.95;4.13;;;11.90;99.90;;;;;;5045523;28;20113;-68
2022/10/22 07:39:06;;;;;;;10.77;3.38;;;12.00;99.90;;;;;;5046241;28;20108;-68
2022/10/22 07:41:31;;;;;;;6.03;2.80;;;12.10;99.90;;;;;;5045831;28;20032;-69
2022/10/22 07:43:58;;;;;;;6.10;3.03;;;12.10;99.90;;;;;;5047916;28;20493;-66
2022/10/22 07:46:25;;;;;;;8.02;2.63;;;12.20;99.90;;;;;;5042550;28;20037;-69
2022/10/22 07:48:50;;;;;;;6.25;2.28;;;12.30;99.90;;;;;;5032270;28;20029;-64
2022/10/22 07:51:16;;;;;;;3.70;2.08;;;12.30;99.90;;;;;;5038600;28;20025;-66
2022/10/22 07:53:42;;;;;;;5.78;2.00;;;12.40;99.90;;;;;;5043758;28;20033;-68
2022/10/22 07:56:08;;;;;;;2.50;1.70;;;12.50;99.90;;;;;;5045529;28;20037;-67
2022/10/22 07:58:34;;;;;;;6.15;2.05;;;12.50;99.90;;;;;;5047249;28;20028;-68
2022/10/22 08:01:01;;;;;;;4.93;1.80;;;12.50;99.90;;;;;;5046459;28;20112;-68
2022/10/22 08:03:27;;;;;;;6.50;2.35;;;12.60;99.90;;;;;;5044649;28;20032;-68
2022/10/22 08:05:53;;;;;;;7.65;1.90;;;12.70;99.90;;;;;;5045648;28;20123;-66
2022/10/22 08:08:19;;;;;;;4.15;1.95;;;12.70;99.90;;;;;;5048642;28;20033;-66
2022/10/22 08:10:47;;;;;;;11.32;2.10;;;12.70;99.90;;;;;;5051973;28;20025;-65
2022/10/22 08:13:12;;;;;;;3.38;2.00;;;12.70;99.90;;;;;;5049761;28;20505;-68
2022/10/22 08:15:38;;;;;;;6.70;2.25;;;12.80;99.90;;;;;;5052013;28;20036;-66
2022/10/22 08:18:04;;;;;;;3.15;2.08;;;12.90;99.90;;;;;;5050307;28;20032;-68
2022/10/22 08:20:30;;;;;;;5.10;2.60;;;13.10;99.90;;;;;;5045019;28;20037;-68
2022/10/22 08:22:57;;;;;;;4.88;2.20;;;13.20;99.90;;;;;;5050298;28;20032;-68
2022/10/22 08:25:23;;;;;;;3.28;2.20;;;13.40;99.90;;;;;;5051058;28;20091;-67
2022/10/22 08:27:48;;;;;;;3.15;1.90;;;13.50;99.90;;;;;;5050187;28;20518;-68
2022/10/22 08:30:14;;;;;;;9.25;3.58;;;13.60;99.90;;;;;;5049955;28;20033;-67
2022/10/22 08:32:40;;;;;;;6.80;2.78;;;13.80;99.90;;;;;;5049826;28;20085;-67
2022/10/22 08:35:06;;;;;;;7.97;2.10;;;14.00;99.90;;;;;;5050762;28;20041;-67
2022/10/22 08:37:32;;;;;;;8.90;3.08;;;14.20;99.90;;;;;;5051683;28;20394;-66
2022/10/22 08:39:57;;;;;;;12.55;6.15;;;14.40;99.90;;;;;;5049781;28;20032;-67
2022/10/22 08:42:32;;;;;;;5.53;1.63;;;14.60;99.90;;;;;;5049513;28;20107;-68
2022/10/22 08:45:23;;;;;;;1.95;1.35;;;14.60;99.90;;;;;;5051081;28;20076;-69
2022/10/22 08:48:09;;;;;;;5.55;1.52;;;14.70;99.90;;;;;;5046189;28;20537;-71
2022/10/22 08:50:44;;;;;;;6.95;1.20;;;15.00;99.90;;;;;;5042083;28;20049;-67
2022/10/22 08:53:16;;;;;;;2.13;1.17;;;15.00;99.90;;;;;;5047392;28;20045;-68
2022/10/22 08:55:42;;;;;;;4.47;1.50;;;14.90;99.90;;;;;;5047525;28;20386;-66
2022/10/22 08:58:47;;;;;;;4.85;1.73;;;14.90;99.90;;;;;;5046342;28;20107;-66
2022/10/22 09:01:18;;;;;;;3.67;1.25;;;14.90;99.90;;;;;;5033127;28;20124;-67
2022/10/22 09:03:46;;;;;;;4.55;1.20;;;15.10;99.90;;;;;;5049049;28;20064;-68
2022/10/22 09:06:20;;;;;;;5.57;1.30;;;15.30;99.90;;;;;;5050095;28;20098;-68
2022/10/22 09:08:47;;;;;;;2.42;0.98;;;15.50;99.90;;;;;;5050153;28;20029;-67
2022/10/22 09:11:12;;;;;;;2.63;0.80;;;15.70;99.90;;;;;;5049779;28;20033;-68
2022/10/22 09:13:43;;;;;;;1.55;0.98;;;15.70;99.90;;;;;;5050351;28;20040;-67
2022/10/22 09:16:23;;;;;;;3.72;1.10;;;15.60;99.90;;;;;;5046458;28;20075;-67
2022/10/22 09:19:10;;;;;;;3.45;0.77;;;15.60;99.90;;;;;;5049827;28;20036;-68
2022/10/22 09:21:41;;;;;;;1.85;0.70;;;15.80;99.90;;;;;;5049031;28;20037;-67
2022/10/22 09:24:25;;;;;;;3.58;0.93;;;15.90;99.90;;;;;;5047174;28;20581;-68
2022/10/22 09:26:51;;;;;;;4.65;0.65;;;16.00;99.90;;;;;;5050356;28;20033;-68
2022/10/22 09:29:22;;;;;;;3.42;0.80;;;16.10;99.90;;;;;;5049023;28;20025;-68
2022/10/22 09:31:47;;;;;;;2.17;0.80;;;16.20;99.90;;;;;;5059721;28;20448;-67
2022/10/22 09:34:18;;;;;;;1.90;0.80;;;16.20;99.90;;;;;;5048545;28;20033;-69
2022/10/22 09:36:44;;;;;;;;;;;16.40;99.90;;;;;;5050188;28;20041;-69
2022/10/22 09:39:30;;;;;;;5.45;0.90;;;16.40;99.90;;;;;;5048386;28;19958;-68
2022/10/22 09:41:56;;;;;;;4.35;0.93;;;16.50;99.90;;;;;;5046255;28;20082;-69
2022/10/22 09:44:22;;;;;;;2.40;1.10;;;16.60;99.90;;;;;;5044911;28;20405;-68
2022/10/22 09:46:48;;;;;;;6.68;0.90;;;16.60;99.90;;;;;;5046183;28;20527;-67
2022/10/22 09:49:17;;;;;;;4.13;1.20;;;16.70;99.90;;;;;;5045560;28;20025;-67
2022/10/22 09:52:00;;;;;;;2.25;1.13;;;16.70;99.90;;;;;;5040094;28;20034;-68
2022/10/22 09:54:31;;;;;;;10.93;1.20;;;16.70;99.90;;;;;;5044541;28;20055;-67
2022/10/22 09:57:20;;;;;;;4.68;1.02;;;16.60;99.90;;;;;;5049187;28;20025;-66
2022/10/22 09:59:49;;;;;;;10.68;0.88;;;16.70;99.90;;;;;;5045455;28;20195;-67
2022/10/22 10:02:22;;;;;;;5.22;0.93;;;16.60;99.90;;;;;;5047988;28;20116;-65
2022/10/22 10:04:50;;;;;;;2.20;1.00;;;16.50;99.90;;;;;;5061320;28;20024;-65
2022/10/22 10:07:25;;;;;;;2.08;1.15;;;16.30;99.90;;;;;;5052389;28;20056;-67
2022/10/22 10:09:52;;;;;;;4.22;1.10;;;16.30;99.90;;;;;;5047687;28;20393;-68
2022/10/22 10:12:40;;;;;;;1.58;1.25;;;16.50;99.90;;;;;;5048195;28;20052;-68
2022/10/22 10:15:32;;;;;;;3.58;0.95;;;16.50;99.90;;;;;;5045203;28;20060;-68
2022/10/22 10:18:31;;;;;;;2.92;1.20;;;16.70;99.90;;;;;;5043435;28;20032;-68
2022/10/22 10:21:32;;;;;;;2.90;1.05;;;16.90;99.90;;;;;;5048042;28;20079;-67
2022/10/22 10:24:18;;;;;;;6.38;1.50;;;17.10;99.90;;;;;;5035830;28;20107;-66
2022/10/22 10:26:47;;;;;;;3.53;1.30;;;17.20;99.90;;;;;;5042142;28;20025;-66
2022/10/22 10:29:26;;;;;;;3.33;1.23;;;17.10;99.90;;;;;;5035434;28;20470;-68
2022/10/22 10:32:16;;;;;;;4.57;1.10;;;17.10;99.90;;;;;;5043308;28;20025;-67
2022/10/22 10:34:58;;;;;;;9.60;1.27;;;17.20;99.90;;;;;;5049945;28;20041;-68
2022/10/22 10:37:25;;;;;;;5.40;1.02;;;17.20;99.90;;;;;;5041052;28;20040;-68
2022/10/22 10:40:27;;;;;;;3.92;1.20;;;17.10;99.90;;;;;;5054926;28;20798;-67
2022/10/22 10:42:52;;;;;;;2.25;1.05;;;17.30;99.90;;;;;;5043257;28;20048;-67
2022/10/22 10:45:42;;;;;;;3.13;0.80;;;17.40;99.90;;;;;;5045628;28;20053;-66
2022/10/22 10:48:25;;;;;;;6.23;1.00;;;17.60;99.90;;;;;;5043630;28;20067;-69
2022/10/22 10:51:01;;;;;;;1.23;0.60;;;17.80;99.90;;;;;;5046638;28;20325;-67
2022/10/22 10:54:02;;;;;;;4.68;0.80;;;18.00;99.90;;;;;;5047476;28;20025;-68
2022/10/22 10:56:51;;;;;;;1.42;0.60;;;18.00;99.90;;;;;;5047289;28;20033;-68
2022/10/22 10:59:40;;;;;;;4.93;0.80;;;18.10;99.90;;;;;;5046410;28;21060;-67
2022/10/22 11:02:39;;;;;;;2.13;0.90;;;18.20;99.90;;;;;;5045635;28;20060;-66
2022/10/22 11:05:38;;;;;;;3.40;1.10;;;18.20;99.90;;;;;;5045769;28;20067;-66
2022/10/22 11:08:26;;;;;;;3.30;1.35;;;18.30;99.90;;;;;;5037962;28;20045;-68
2022/10/22 11:11:05;;;;;;;2.88;1.20;;;18.20;99.90;;;;;;5035923;28;20410;-68
2022/10/22 11:14:00;;;;;;;2.40;1.10;;;18.20;99.90;;;;;;5047639;28;20037;-67
2022/10/22 11:16:35;;;;;;;3.53;1.20;;;17.90;99.90;;;;;;5046914;28;20456;-66
2022/10/22 11:19:05;;;;;;;2.00;1.08;;;18.00;99.90;;;;;;5048874;28;20036;-67
2022/10/22 11:21:38;;;;;;;3.97;0.80;;;18.10;99.90;;;;;;5048056;28;20158;-67
2022/10/22 11:24:07;;;;;;;1.80;0.90;;;18.00;99.90;;;;;;5047380;28;20033;-65
2022/10/22 11:26:50;;;;;;;4.13;1.00;;;18.10;99.90;;;;;;5047744;28;20162;-67
2022/10/22 11:29:33;;;;;;;3.08;1.00;;;18.40;99.90;;;;;;5046151;28;20533;-68
2022/10/22 11:32:01;;;;;;;3.22;1.08;;;18.70;99.90;;;;;;5046980;28;20098;-68
2022/10/22 11:34:37;;;;;;;5.05;1.00;;;18.40;99.90;;;;;;5047699;28;20060;-66
2022/10/22 11:37:05;;;;;;;2.30;0.65;;;18.10;99.90;;;;;;5052689;28;20025;-67
2022/10/22 11:39:50;;;;;;;4.95;0.98;;;17.90;99.90;;;;;;5054503;28;20083;-66
2022/10/22 11:42:22;;;;;;;2.90;0.77;;;18.20;99.90;;;;;;5054563;28;20035;-70
2022/10/22 11:44:59;;;;;;;2.47;0.70;;;18.40;99.90;;;;;;5054778;28;20049;-68
2022/10/22 11:47:28;;;;;;;1.58;0.60;;;18.70;99.90;;;;;;5051841;28;20035;-67
2022/10/22 11:50:21;;;;;;;2.13;0.80;;;18.90;99.90;;;;;;5053801;28;20375;-68
2022/10/22 11:53:06;;;;;;;2.63;0.80;;;18.80;99.90;;;;;;5055169;28;20032;-69
2022/10/22 11:55:54;;;;;;;4.70;1.02;;;18.60;99.90;;;;;;5053002;28;20037;-67
2022/10/22 11:58:38;;;;;;;1.55;0.82;;;18.60;99.90;;;;;;5054410;28;20075;-67
2022/10/22 12:01:06;;;;;;;3.83;1.30;;;19.30;99.90;;;;;;5054990;28;20037;-67
2022/10/22 12:03:32;;;;;;;2.70;0.68;;;19.70;99.90;;;;;;5052408;28;20041;-68
2022/10/22 12:06:14;;;;;;;3.05;0.90;;;19.70;99.90;;;;;;5055053;28;20086;-67
2022/10/22 12:08:49;;;;;;;3.33;1.02;;;19.90;99.90;;;;;;5054731;28;20483;-68
2022/10/22 12:11:36;;;;;;;3.88;1.20;;;20.10;99.90;;;;;;5054642;28;20028;-70
2022/10/22 12:14:26;;;;;;;1.17;0.75;;;20.20;99.90;;;;;;5054671;28;20033;-70
2022/10/22 12:17:11;;;;;;;3.90;0.70;;;19.80;99.90;;;;;;5055092;28;20380;-67
2022/10/22 12:19:40;;;;;;;2.95;0.80;;;19.30;99.90;;;;;;5053237;28;20108;-67
2022/10/22 12:22:06;;;;;;;1.27;0.70;;;19.60;99.90;;;;;;5054887;28;20112;-68
2022/10/22 12:24:37;;;;;;;2.22;0.80;;;19.70;99.90;;;;;;5054149;28;20699;-66
2022/10/22 12:27:03;;;;;;;5.55;0.65;;;19.40;99.90;;;;;;5054781;28;20158;-69
2022/10/22 12:29:31;;;;;;;3.88;0.80;;;19.70;99.90;;;;;;5054312;28;20111;-69
2022/10/22 12:32:02;;;;;;;3.17;0.73;;;19.80;99.90;;;;;;5054713;28;20054;-66
2022/10/22 12:34:28;;;;;;;2.63;1.10;;;19.90;99.90;;;;;;5033900;28;20052;-68
2022/10/22 12:36:54;;;;;;;6.95;0.65;;;19.80;99.90;;;;;;5034716;28;20022;-68
2022/10/22 12:39:25;;;;;;;1.23;0.98;;;20.00;99.90;;;;;;5033704;28;20037;-67
2022/10/22 12:41:52;;;;;;;5.05;0.77;;;20.10;99.90;;;;;;5034751;28;20103;-68
2022/10/22 12:44:18;;;;;;;1.88;0.60;;;20.00;99.90;;;;;;5034369;28;20060;-68
2022/10/22 12:46:47;;;;;;;1.58;0.50;;;20.00;99.90;;;;;;5034281;28;20033;-71
2022/10/22 12:49:20;;;;;;;1.38;0.55;;;19.90;99.90;;;;;;5050623;28;20036;-68
2022/10/22 12:51:47;;;;;;;5.30;0.73;;;19.70;99.90;;;;;;5051562;28;20037;-68
2022/10/22 12:54:21;;;;;;;1.63;0.60;;;19.90;99.90;;;;;;5051188;28;20389;-68
2022/10/22 12:56:48;;;;;;;3.05;0.47;;;19.80;99.90;;;;;;5051548;28;20032;-69
2022/10/22 12:59:26;;;;;;;5.93;0.93;;;19.60;99.90;;;;;;5051303;28;20033;-67
2022/10/22 13:01:52;;;;;;;2.58;0.63;;;19.60;99.90;;;;;;5049049;28;20033;-67
2022/10/22 13:04:34;;;;;;;3.65;0.75;;;19.80;99.90;;;;;;5051052;28;20021;-71